Detalii statie MIRACOM [00001CFF]

Toti senzorii

Date Temperatura solului [C]Precipitatii [mm]Voltaj baterie [mV]Leaf Wetness [Min]HC Air temperature [C]HC Relative humidity [%]Punctul de roua [C]
medieminmaxsumaultimatimpmedieminmaxmediemediemin
2019-06-15 17:00:00 30.6 30.5 30.8 0 7138 31.63 25.43 33.7 0 0 0
2019-06-15 18:00:00 29.5 28.7 30.5 0.2 7128 21.97 20.6 24.24 0 0 0
2019-06-15 19:00:00 27.9 27.4 28.6 0.2 7000 21.94 21.3 23.18 0 0 0
2019-06-15 20:00:00 26.6 26.1 27.2 0.2 6962 21.48 20.54 23.31 0 0 0
2019-06-15 21:00:00 25.8 25.5 26.1 0 6962 20.93 20.42 21.26 0 0 0
2019-06-15 22:00:00 25.1 24.8 25.4 0 6952 20.93 20.24 21.15 0 0 0
2019-06-15 23:00:00 24.4 24.2 24.8 0 6952 21.06 20.91 21.22 0 0 0
2019-06-16 00:00:00 23.9 23.4 24.2 0 6942 20.86 20.69 21.08 0 0 0
2019-06-16 01:00:00 23.4 23 23.7 0 6932 20.61 19.9 21.1 0 0 0
2019-06-16 02:00:00 22.9 22.6 23.1 0 6932 18.88 18.6 19.7 0 0 0
2019-06-16 03:00:00 22.5 22.3 22.8 0 6922 19.34 18.78 19.7 0 0 0
2019-06-16 04:00:00 22 21.8 22.3 0 6914 18.42 18.07 18.74 0 0 0
2019-06-16 05:00:00 21.7 21.5 22 0 6914 17.89 17.53 18.32 0 0 0
2019-06-16 06:00:00 21.4 21.4 21.5 0 7010 19.31 18.23 20.49 0 0 0
2019-06-16 07:00:00 21.4 21.3 21.6 0 7098 21.77 20.46 23.91 0 0 0
2019-06-16 08:00:00 21.7 21.6 21.9 0 7108 25.2 24.16 26.33 0 0 0
2019-06-16 09:00:00 22.2 21.9 22.7 0 7158 27.18 25.89 28.94 0 0 0
2019-06-16 10:00:00 23.8 22.9 24.8 0 7332 28.86 27.97 30.32 0 0 0
2019-06-16 11:00:00 25.4 24.9 25.9 0 7332 30.74 29.34 32 0 0 0
2019-06-16 12:00:00 26.8 26 27.9 0 7324 32.31 30.77 34.06 0 0 0
2019-06-16 13:00:00 28.7 28 29.5 0 7324 33.94 32.52 35.93 0.72 0
2019-06-16 14:00:00 30.2 29.6 30.8 0 7324 34.31 32.68 35.31 0.07 0 0
2019-06-16 15:00:00 31.2 30.8 31.6 0 7324 34.6 33.39 35.41 2.92 -1.3 0
2019-06-16 16:00:00 32 31.8 32.2 0 7332 60 33.65 33.1 34.3 13.88 3.4 0
2019-06-16 17:00:00 31.7 31.5 32 0 7324 33.32 32.52 34.02 20.72 0
2019-06-16 18:00:00 31.5 31.1 31.8 0 7304 32.53 31.91 33.26 10.45 3.5 0
2019-06-16 19:00:00 30.8 30.4 31.2 0 7304 28.57 26.11 30.79 0 0 0
2019-06-16 20:00:00 29.6 29 30.4 0 6972 24.13 22.76 25.71 0 0 0
2019-06-16 21:00:00 28.5 28.1 29 0 6962 22.48 21.77 23.67 0 0 0
2019-06-16 22:00:00 27.5 27.2 28 0 6942 23.14 22.02 23.8 0 0 0
2019-06-16 23:00:00 26.5 26.1 27 0 6932 21.66 19.87 22.18 0 0 0
2019-06-17 00:00:00 25.6 25.4 25.9 0 6932 19.29 18.58 19.79 0 0 0
2019-06-17 01:00:00 24.9 24.7 25.2 0 6932 18.94 17.85 19.64 0 0 0
2019-06-17 02:00:00 24.3 24 24.6 0 6922 19.51 18.05 20.2 0 0 0
2019-06-17 03:00:00 23.7 23.5 23.9 0 6922 20.06 19.74 20.4 0 0 0
2019-06-17 04:00:00 23.2 23.1 23.5 0 6922 18.92 17.87 19.68 0 0 0
2019-06-17 05:00:00 22.8 22.6 23 0 6922 18.68 18.36 19.12 0 0 0
2019-06-17 06:00:00 22.6 22.5 22.7 0 7010 19.94 19.23 20.85 0 0 0
2019-06-17 07:00:00 22.6 22.3 22.9 0 7108 22.57 21.21 24.41 0 0 0
2019-06-17 08:00:00 22.8 22.8 23.2 0 7118 25.92 24.55 27.28 0 0 0
2019-06-17 09:00:00 23.3 23.1 23.7 0 7148 28.27 27.51 29.03 0 0 0
2019-06-17 10:00:00 24.8 23.9 25.8 0 7324 30.36 28.59 32.08 4.97 0
2019-06-17 11:00:00 26.4 26.1 26.7 0 7324 32.41 31.02 33.54 47.28 0
2019-06-17 12:00:00 27.7 26.8 28.5 0 7324 33.65 32.42 34.57 38.98 16.9 0
2019-06-17 13:00:00 29.7 29.4 30 0 7332 34.31 33.7 34.91 0 0
2019-06-17 14:00:00 30.7 30.2 31.2 0 7332 34.08 33.19 34.86 0.72 0
2019-06-17 15:00:00 31.4 31.4 31.6 0 7342 32.59 31.72 33.75 2.04 -0.1 0
2019-06-17 16:00:00 31.3 31 31.5 0 7196 31.66 30.72 32.81 5.82 0